Terminal Aerodrome Forecast
Issued by NWS

Home | Current Version | Previous Version | Text Only | Print | Product List | Glossary Off
Versions: 1 2 3 4 5 6 7 8 9 10 11 12 13 14 15 16 17

000
FTUS43 KABR 211120
TAFMBG
TAF
KMBG 211120Z 2112/2212 30017G24KT P6SM VCSH BKN200
     FM220100 29010KT P6SM FEW150
     FM220900 VRB06KT P6SM SKC=

USA.gov is the U.S. government's official web portal to all federal, state and local government web resources and services.